sensor_id;sensor_type;location;lat;lon;timestamp;temperature;humidity
28161;DHT22;15448;51.956;7.670;2022-07-29T00:02:11;22.30;49.30
28161;DHT22;15448;51.956;7.670;2022-07-29T00:04:37;22.30;49.50
28161;DHT22;15448;51.956;7.670;2022-07-29T00:07:03;22.10;49.80
28161;DHT22;15448;51.956;7.670;2022-07-29T00:09:30;22.20;49.60
28161;DHT22;15448;51.956;7.670;2022-07-29T00:11:59;22.20;49.60
28161;DHT22;15448;51.956;7.670;2022-07-29T00:14:25;22.30;49.10
28161;DHT22;15448;51.956;7.670;2022-07-29T00:16:51;22.30;49.40
28161;DHT22;15448;51.956;7.670;2022-07-29T00:19:16;22.20;49.70
28161;DHT22;15448;51.956;7.670;2022-07-29T00:21:42;22.20;49.50
28161;DHT22;15448;51.956;7.670;2022-07-29T00:24:08;22.20;49.90
28161;DHT22;15448;51.956;7.670;2022-07-29T00:26:33;22.10;50.20
28161;DHT22;15448;51.956;7.670;2022-07-29T00:29:00;22.10;50.30
28161;DHT22;15448;51.956;7.670;2022-07-29T00:31:26;22.20;49.80
28161;DHT22;15448;51.956;7.670;2022-07-29T00:33:51;22.20;50.00
28161;DHT22;15448;51.956;7.670;2022-07-29T00:36:17;22.10;50.10
28161;DHT22;15448;51.956;7.670;2022-07-29T00:38:42;22.00;50.20
28161;DHT22;15448;51.956;7.670;2022-07-29T00:41:11;22.00;50.60
28161;DHT22;15448;51.956;7.670;2022-07-29T00:43:36;22.10;50.40
28161;DHT22;15448;51.956;7.670;2022-07-29T00:46:02;22.10;50.50
28161;DHT22;15448;51.956;7.670;2022-07-29T00:48:28;22.00;50.70
28161;DHT22;15448;51.956;7.670;2022-07-29T00:50:53;22.10;50.40
28161;DHT22;15448;51.956;7.670;2022-07-29T00:53:20;22.10;50.00
28161;DHT22;15448;51.956;7.670;2022-07-29T00:55:47;22.10;49.80
28161;DHT22;15448;51.956;7.670;2022-07-29T00:58:12;22.10;49.80
28161;DHT22;15448;51.956;7.670;2022-07-29T01:00:39;22.30;50.30
28161;DHT22;15448;51.956;7.670;2022-07-29T01:03:06;22.10;50.10
28161;DHT22;15448;51.956;7.670;2022-07-29T01:05:32;22.10;50.00
28161;DHT22;15448;51.956;7.670;2022-07-29T01:07:58;22.10;49.90
28161;DHT22;15448;51.956;7.670;2022-07-29T01:10:25;22.10;50.10
28161;DHT22;15448;51.956;7.670;2022-07-29T01:12:53;22.10;50.00
28161;DHT22;15448;51.956;7.670;2022-07-29T01:15:19;22.10;49.90
28161;DHT22;15448;51.956;7.670;2022-07-29T01:18:02;22.00;50.00
28161;DHT22;15448;51.956;7.670;2022-07-29T01:28:58;21.90;50.60
28161;DHT22;15448;51.956;7.670;2022-07-29T01:31:31;21.90;50.80
28161;DHT22;15448;51.956;7.670;2022-07-29T01:34:02;21.90;50.80
28161;DHT22;15448;51.956;7.670;2022-07-29T01:36:37;21.90;50.40
28161;DHT22;15448;51.956;7.670;2022-07-29T01:39:10;21.90;50.50
28161;DHT22;15448;51.956;7.670;2022-07-29T01:41:45;21.80;51.10
28161;DHT22;15448;51.956;7.670;2022-07-29T01:44:20;21.90;51.10
28161;DHT22;15448;51.956;7.670;2022-07-29T01:46:55;21.80;51.30
28161;DHT22;15448;51.956;7.670;2022-07-29T01:49:27;21.90;50.80
28161;DHT22;15448;51.956;7.670;2022-07-29T01:51:58;21.90;50.60
28161;DHT22;15448;51.956;7.670;2022-07-29T01:54:32;21.90;50.70
28161;DHT22;15448;51.956;7.670;2022-07-29T01:57:00;21.90;50.30
28161;DHT22;15448;51.956;7.670;2022-07-29T01:59:29;22.00;50.30
28161;DHT22;15448;51.956;7.670;2022-07-29T02:01:57;22.00;50.10
28161;DHT22;15448;51.956;7.670;2022-07-29T02:04:24;21.90;50.00
28161;DHT22;15448;51.956;7.670;2022-07-29T02:06:53;21.90;50.10
28161;DHT22;15448;51.956;7.670;2022-07-29T02:09:21;21.90;50.50
28161;DHT22;15448;51.956;7.670;2022-07-29T02:11:51;21.90;50.60
28161;DHT22;15448;51.956;7.670;2022-07-29T02:14:19;21.80;50.60
28161;DHT22;15448;51.956;7.670;2022-07-29T02:16:49;21.90;50.60
28161;DHT22;15448;51.956;7.670;2022-07-29T02:19:18;21.90;50.30
28161;DHT22;15448;51.956;7.670;2022-07-29T02:21:49;21.80;50.30
28161;DHT22;15448;51.956;7.670;2022-07-29T02:24:20;21.90;50.50
28161;DHT22;15448;51.956;7.670;2022-07-29T02:26:48;21.90;50.50
28161;DHT22;15448;51.956;7.670;2022-07-29T02:29:15;21.80;50.60
28161;DHT22;15448;51.956;7.670;2022-07-29T02:31:43;21.80;50.70
28161;DHT22;15448;51.956;7.670;2022-07-29T02:34:10;21.80;50.60
28161;DHT22;15448;51.956;7.670;2022-07-29T02:36:37;21.80;50.70
28161;DHT22;15448;51.956;7.670;2022-07-29T02:39:04;21.80;50.70
28161;DHT22;15448;51.956;7.670;2022-07-29T02:44:14;21.80;51.30
28161;DHT22;15448;51.956;7.670;2022-07-29T02:46:50;21.80;50.60
28161;DHT22;15448;51.956;7.670;2022-07-29T02:51:57;21.80;50.60
28161;DHT22;15448;51.956;7.670;2022-07-29T02:54:33;21.80;50.70
28161;DHT22;15448;51.956;7.670;2022-07-29T02:57:08;21.80;50.60
28161;DHT22;15448;51.956;7.670;2022-07-29T02:59:36;21.80;50.70
28161;DHT22;15448;51.956;7.670;2022-07-29T03:02:07;21.70;51.00
28161;DHT22;15448;51.956;7.670;2022-07-29T03:04:34;21.70;51.10
28161;DHT22;15448;51.956;7.670;2022-07-29T03:07:00;21.60;51.40
28161;DHT22;15448;51.956;7.670;2022-07-29T03:09:27;21.60;51.40
28161;DHT22;15448;51.956;7.670;2022-07-29T03:11:54;21.60;51.20
28161;DHT22;15448;51.956;7.670;2022-07-29T03:14:21;21.70;50.90
28161;DHT22;15448;51.956;7.670;2022-07-29T03:16:48;21.80;50.80
28161;DHT22;15448;51.956;7.670;2022-07-29T03:19:14;21.80;50.50
28161;DHT22;15448;51.956;7.670;2022-07-29T03:21:40;21.80;50.70
28161;DHT22;15448;51.956;7.670;2022-07-29T03:24:06;21.70;50.60
28161;DHT22;15448;51.956;7.670;2022-07-29T03:26:32;21.70;50.60
28161;DHT22;15448;51.956;7.670;2022-07-29T03:28:57;21.70;50.40
28161;DHT22;15448;51.956;7.670;2022-07-29T03:31:23;21.80;50.70
28161;DHT22;15448;51.956;7.670;2022-07-29T03:33:48;21.80;50.70
28161;DHT22;15448;51.956;7.670;2022-07-29T03:36:14;21.80;50.60
28161;DHT22;15448;51.956;7.670;2022-07-29T03:38:40;21.70;50.80
28161;DHT22;15448;51.956;7.670;2022-07-29T03:41:09;21.70;50.70
28161;DHT22;15448;51.956;7.670;2022-07-29T03:43:38;21.70;50.80
28161;DHT22;15448;51.956;7.670;2022-07-29T03:46:06;21.70;50.80
28161;DHT22;15448;51.956;7.670;2022-07-29T03:48:33;21.60;50.90
28161;DHT22;15448;51.956;7.670;2022-07-29T03:51:00;21.60;51.00
28161;DHT22;15448;51.956;7.670;2022-07-29T03:53:26;21.50;51.20
28161;DHT22;15448;51.956;7.670;2022-07-29T03:55:54;21.60;51.20
28161;DHT22;15448;51.956;7.670;2022-07-29T03:58:21;21.60;51.10
28161;DHT22;15448;51.956;7.670;2022-07-29T04:00:47;21.60;51.40
28161;DHT22;15448;51.956;7.670;2022-07-29T04:03:13;22.10;51.20
28161;DHT22;15448;51.956;7.670;2022-07-29T04:05:39;21.60;51.00
28161;DHT22;15448;51.956;7.670;2022-07-29T04:08:05;21.60;51.30
28161;DHT22;15448;51.956;7.670;2022-07-29T04:10:31;21.60;51.10
28161;DHT22;15448;51.956;7.670;2022-07-29T04:12:57;21.60;51.10
28161;DHT22;15448;51.956;7.670;2022-07-29T04:15:22;21.70;51.10
28161;DHT22;15448;51.956;7.670;2022-07-29T04:17:48;21.70;51.00
28161;DHT22;15448;51.956;7.670;2022-07-29T04:20:13;21.50;51.10
28161;DHT22;15448;51.956;7.670;2022-07-29T04:22:42;21.60;51.60
28161;DHT22;15448;51.956;7.670;2022-07-29T04:25:08;21.50;51.20
28161;DHT22;15448;51.956;7.670;2022-07-29T04:27:34;21.60;51.30
28161;DHT22;15448;51.956;7.670;2022-07-29T04:29:59;21.60;51.20
28161;DHT22;15448;51.956;7.670;2022-07-29T04:32:25;21.50;51.40
28161;DHT22;15448;51.956;7.670;2022-07-29T04:34:51;21.50;51.40
28161;DHT22;15448;51.956;7.670;2022-07-29T04:37:16;21.50;51.80
28161;DHT22;15448;51.956;7.670;2022-07-29T04:39:42;21.50;51.70
28161;DHT22;15448;51.956;7.670;2022-07-29T04:42:07;21.50;51.50
28161;DHT22;15448;51.956;7.670;2022-07-29T04:44:33;21.50;51.70
28161;DHT22;15448;51.956;7.670;2022-07-29T04:46:58;21.50;51.80
28161;DHT22;15448;51.956;7.670;2022-07-29T04:49:24;21.50;51.80
28161;DHT22;15448;51.956;7.670;2022-07-29T04:51:49;21.50;51.50
28161;DHT22;15448;51.956;7.670;2022-07-29T04:54:15;21.50;51.60
28161;DHT22;15448;51.956;7.670;2022-07-29T04:56:41;21.50;51.60
28161;DHT22;15448;51.956;7.670;2022-07-29T04:59:07;21.50;51.60
28161;DHT22;15448;51.956;7.670;2022-07-29T05:01:33;21.50;51.80
28161;DHT22;15448;51.956;7.670;2022-07-29T05:03:58;21.50;52.10
28161;DHT22;15448;51.956;7.670;2022-07-29T05:06:24;21.50;51.70
28161;DHT22;15448;51.956;7.670;2022-07-29T05:08:49;21.50;52.00
28161;DHT22;15448;51.956;7.670;2022-07-29T05:11:15;21.50;51.90
28161;DHT22;15448;51.956;7.670;2022-07-29T05:13:40;21.50;52.00
28161;DHT22;15448;51.956;7.670;2022-07-29T05:16:07;21.50;52.00
28161;DHT22;15448;51.956;7.670;2022-07-29T05:18:33;21.50;52.20
28161;DHT22;15448;51.956;7.670;2022-07-29T05:20:58;21.50;52.30
28161;DHT22;15448;51.956;7.670;2022-07-29T05:23:24;21.50;52.30
28161;DHT22;15448;51.956;7.670;2022-07-29T05:25:49;21.60;52.40
28161;DHT22;15448;51.956;7.670;2022-07-29T05:28:15;21.60;52.40
28161;DHT22;15448;51.956;7.670;2022-07-29T05:30:41;21.60;52.40
28161;DHT22;15448;51.956;7.670;2022-07-29T05:33:06;21.60;52.50
28161;DHT22;15448;51.956;7.670;2022-07-29T05:35:32;21.60;52.50
28161;DHT22;15448;51.956;7.670;2022-07-29T05:38:00;21.60;52.70
28161;DHT22;15448;51.956;7.670;2022-07-29T05:40:25;21.60;52.70
28161;DHT22;15448;51.956;7.670;2022-07-29T05:42:51;21.60;52.80
28161;DHT22;15448;51.956;7.670;2022-07-29T05:45:17;21.60;52.80
28161;DHT22;15448;51.956;7.670;2022-07-29T05:47:42;21.60;52.60
28161;DHT22;15448;51.956;7.670;2022-07-29T05:50:08;21.60;52.40
28161;DHT22;15448;51.956;7.670;2022-07-29T05:52:34;21.60;52.70
28161;DHT22;15448;51.956;7.670;2022-07-29T05:54:59;21.70;52.60
28161;DHT22;15448;51.956;7.670;2022-07-29T05:57:28;21.70;52.30
28161;DHT22;15448;51.956;7.670;2022-07-29T05:59:53;21.70;52.40
28161;DHT22;15448;51.956;7.670;2022-07-29T06:02:19;21.70;52.20
28161;DHT22;15448;51.956;7.670;2022-07-29T06:04:45;21.80;52.50
28161;DHT22;15448;51.956;7.670;2022-07-29T06:07:10;21.70;52.50
28161;DHT22;15448;51.956;7.670;2022-07-29T06:09:36;21.70;52.70
28161;DHT22;15448;51.956;7.670;2022-07-29T06:12:02;21.60;52.80
28161;DHT22;15448;51.956;7.670;2022-07-29T06:14:28;21.60;52.70
28161;DHT22;15448;51.956;7.670;2022-07-29T06:16:54;21.70;52.90
28161;DHT22;15448;51.956;7.670;2022-07-29T06:19:19;21.70;52.70
28161;DHT22;15448;51.956;7.670;2022-07-29T06:21:46;21.70;52.70
28161;DHT22;15448;51.956;7.670;2022-07-29T06:24:13;21.70;53.00
28161;DHT22;15448;51.956;7.670;2022-07-29T06:26:39;21.70;52.80
28161;DHT22;15448;51.956;7.670;2022-07-29T06:29:06;21.70;52.90
28161;DHT22;15448;51.956;7.670;2022-07-29T06:31:32;21.70;52.40
28161;DHT22;15448;51.956;7.670;2022-07-29T06:33:57;21.70;52.60
28161;DHT22;15448;51.956;7.670;2022-07-29T06:36:23;21.60;52.90
28161;DHT22;15448;51.956;7.670;2022-07-29T06:38:48;21.60;52.80
28161;DHT22;15448;51.956;7.670;2022-07-29T06:41:14;21.60;52.90
28161;DHT22;15448;51.956;7.670;2022-07-29T06:43:42;21.60;52.80
28161;DHT22;15448;51.956;7.670;2022-07-29T06:46:11;21.60;52.70
28161;DHT22;15448;51.956;7.670;2022-07-29T06:48:38;21.70;52.80
28161;DHT22;15448;51.956;7.670;2022-07-29T06:51:05;21.70;52.70
28161;DHT22;15448;51.956;7.670;2022-07-29T06:53:31;21.80;52.70
28161;DHT22;15448;51.956;7.670;2022-07-29T06:55:58;21.70;53.70
28161;DHT22;15448;51.956;7.670;2022-07-29T06:58:24;21.50;53.30
28161;DHT22;15448;51.956;7.670;2022-07-29T07:00:50;21.50;53.70
28161;DHT22;15448;51.956;7.670;2022-07-29T07:03:16;21.50;54.00
28161;DHT22;15448;51.956;7.670;2022-07-29T07:05:42;21.40;54.00
28161;DHT22;15448;51.956;7.670;2022-07-29T07:08:08;21.40;53.90
28161;DHT22;15448;51.956;7.670;2022-07-29T07:10:34;21.40;54.10
28161;DHT22;15448;51.956;7.670;2022-07-29T07:13:00;21.50;53.90
28161;DHT22;15448;51.956;7.670;2022-07-29T07:15:27;21.50;54.70
28161;DHT22;15448;51.956;7.670;2022-07-29T07:17:53;21.50;54.10
28161;DHT22;15448;51.956;7.670;2022-07-29T07:20:18;21.40;54.60
28161;DHT22;15448;51.956;7.670;2022-07-29T07:22:44;21.40;54.60
28161;DHT22;15448;51.956;7.670;2022-07-29T07:25:10;21.40;54.30
28161;DHT22;15448;51.956;7.670;2022-07-29T07:27:36;21.50;54.10
28161;DHT22;15448;51.956;7.670;2022-07-29T07:30:03;21.60;54.00
28161;DHT22;15448;51.956;7.670;2022-07-29T07:32:31;21.50;53.90
28161;DHT22;15448;51.956;7.670;2022-07-29T07:34:57;21.50;54.00
28161;DHT22;15448;51.956;7.670;2022-07-29T07:37:24;21.60;53.90
28161;DHT22;15448;51.956;7.670;2022-07-29T07:39:50;21.50;53.70
28161;DHT22;15448;51.956;7.670;2022-07-29T07:42:17;21.50;53.80
28161;DHT22;15448;51.956;7.670;2022-07-29T07:44:42;21.50;53.80
28161;DHT22;15448;51.956;7.670;2022-07-29T07:47:08;21.50;54.20
28161;DHT22;15448;51.956;7.670;2022-07-29T07:49:34;21.60;54.20
28161;DHT22;15448;51.956;7.670;2022-07-29T07:51:59;21.60;54.10
28161;DHT22;15448;51.956;7.670;2022-07-29T07:54:25;21.60;53.90
28161;DHT22;15448;51.956;7.670;2022-07-29T07:56:51;21.60;54.00
28161;DHT22;15448;51.956;7.670;2022-07-29T07:59:17;21.50;53.80
28161;DHT22;15448;51.956;7.670;2022-07-29T08:01:42;21.60;54.10
28161;DHT22;15448;51.956;7.670;2022-07-29T08:04:09;21.50;54.20
28161;DHT22;15448;51.956;7.670;2022-07-29T08:06:35;21.50;54.20
28161;DHT22;15448;51.956;7.670;2022-07-29T08:09:02;21.60;54.30
28161;DHT22;15448;51.956;7.670;2022-07-29T08:11:28;21.60;54.20
28161;DHT22;15448;51.956;7.670;2022-07-29T08:13:54;21.60;54.10
28161;DHT22;15448;51.956;7.670;2022-07-29T08:16:20;21.60;54.30
28161;DHT22;15448;51.956;7.670;2022-07-29T08:18:46;21.60;54.30
28161;DHT22;15448;51.956;7.670;2022-07-29T08:21:13;21.60;54.40
28161;DHT22;15448;51.956;7.670;2022-07-29T08:23:38;21.60;54.30
28161;DHT22;15448;51.956;7.670;2022-07-29T08:26:05;21.60;54.30
28161;DHT22;15448;51.956;7.670;2022-07-29T08:28:31;21.60;54.30
28161;DHT22;15448;51.956;7.670;2022-07-29T08:30:57;21.70;54.30
28161;DHT22;15448;51.956;7.670;2022-07-29T08:33:22;21.60;54.40
28161;DHT22;15448;51.956;7.670;2022-07-29T08:35:48;21.60;54.40
28161;DHT22;15448;51.956;7.670;2022-07-29T08:38:15;21.60;54.30
28161;DHT22;15448;51.956;7.670;2022-07-29T08:40:40;21.70;54.10
28161;DHT22;15448;51.956;7.670;2022-07-29T08:43:07;21.70;53.80
28161;DHT22;15448;51.956;7.670;2022-07-29T08:45:53;21.70;54.10
28161;DHT22;15448;51.956;7.670;2022-07-29T08:48:21;21.80;54.10
28161;DHT22;15448;51.956;7.670;2022-07-29T08:50:50;21.60;54.30
28161;DHT22;15448;51.956;7.670;2022-07-29T08:53:18;21.70;54.30
28161;DHT22;15448;51.956;7.670;2022-07-29T08:55:46;21.70;54.10
28161;DHT22;15448;51.956;7.670;2022-07-29T08:58:13;21.90;53.70
28161;DHT22;15448;51.956;7.670;2022-07-29T09:00:45;21.90;53.50
28161;DHT22;15448;51.956;7.670;2022-07-29T09:03:15;22.00;53.40
28161;DHT22;15448;51.956;7.670;2022-07-29T09:05:42;22.00;53.30
28161;DHT22;15448;51.956;7.670;2022-07-29T09:08:08;22.00;53.40
28161;DHT22;15448;51.956;7.670;2022-07-29T09:10:37;21.90;53.60
28161;DHT22;15448;51.956;7.670;2022-07-29T09:13:03;21.90;53.50
28161;DHT22;15448;51.956;7.670;2022-07-29T09:15:28;22.00;53.60
28161;DHT22;15448;51.956;7.670;2022-07-29T09:17:54;22.00;53.70
28161;DHT22;15448;51.956;7.670;2022-07-29T09:20:22;22.00;53.80
28161;DHT22;15448;51.956;7.670;2022-07-29T09:22:49;21.90;53.80
28161;DHT22;15448;51.956;7.670;2022-07-29T09:25:35;22.00;53.70
28161;DHT22;15448;51.956;7.670;2022-07-29T09:28:12;22.00;53.60
28161;DHT22;15448;51.956;7.670;2022-07-29T09:30:50;22.00;53.90
28161;DHT22;15448;51.956;7.670;2022-07-29T09:33:17;21.90;53.90
28161;DHT22;15448;51.956;7.670;2022-07-29T09:35:42;21.90;53.90
28161;DHT22;15448;51.956;7.670;2022-07-29T09:38:13;22.00;53.60
28161;DHT22;15448;51.956;7.670;2022-07-29T09:40:39;22.00;53.70
28161;DHT22;15448;51.956;7.670;2022-07-29T09:43:12;21.90;53.90
28161;DHT22;15448;51.956;7.670;2022-07-29T09:45:38;22.00;53.90
28161;DHT22;15448;51.956;7.670;2022-07-29T09:48:22;22.00;53.80
28161;DHT22;15448;51.956;7.670;2022-07-29T09:50:48;21.90;54.00
28161;DHT22;15448;51.956;7.670;2022-07-29T09:53:34;22.00;53.90
28161;DHT22;15448;51.956;7.670;2022-07-29T09:56:00;22.10;54.00
28161;DHT22;15448;51.956;7.670;2022-07-29T09:58:26;22.10;53.90
28161;DHT22;15448;51.956;7.670;2022-07-29T10:00:53;22.10;54.30
28161;DHT22;15448;51.956;7.670;2022-07-29T10:03:19;22.10;54.40
28161;DHT22;15448;51.956;7.670;2022-07-29T10:05:48;22.00;54.20
28161;DHT22;15448;51.956;7.670;2022-07-29T10:08:28;22.00;54.20
28161;DHT22;15448;51.956;7.670;2022-07-29T10:11:09;22.00;54.30
28161;DHT22;15448;51.956;7.670;2022-07-29T10:13:35;22.00;54.30
28161;DHT22;15448;51.956;7.670;2022-07-29T10:16:01;22.00;54.40
28161;DHT22;15448;51.956;7.670;2022-07-29T10:18:27;22.10;54.50
28161;DHT22;15448;51.956;7.670;2022-07-29T10:20:53;22.20;54.50
28161;DHT22;15448;51.956;7.670;2022-07-29T10:23:20;22.20;54.40
28161;DHT22;15448;51.956;7.670;2022-07-29T10:25:45;22.20;54.50
28161;DHT22;15448;51.956;7.670;2022-07-29T10:28:11;22.20;54.70
28161;DHT22;15448;51.956;7.670;2022-07-29T10:30:38;22.20;54.90
28161;DHT22;15448;51.956;7.670;2022-07-29T10:36:15;22.10;55.30
28161;DHT22;15448;51.956;7.670;2022-07-29T10:42:25;22.10;55.70
28161;DHT22;15448;51.956;7.670;2022-07-29T10:44:26;22.10;55.90
28161;DHT22;15448;51.956;7.670;2022-07-29T10:46:53;22.00;56.10
28161;DHT22;15448;51.956;7.670;2022-07-29T10:49:24;22.00;56.60
28161;DHT22;15448;51.956;7.670;2022-07-29T10:52:07;22.00;56.70
28161;DHT22;15448;51.956;7.670;2022-07-29T10:57:30;22.00;56.70
28161;DHT22;15448;51.956;7.670;2022-07-29T11:05:04;22.30;56.40
28161;DHT22;15448;51.956;7.670;2022-07-29T11:07:30;22.30;56.20
28161;DHT22;15448;51.956;7.670;2022-07-29T11:15:10;22.30;55.80
28161;DHT22;15448;51.956;7.670;2022-07-29T11:23:00;22.30;56.20
28161;DHT22;15448;51.956;7.670;2022-07-29T11:25:26;22.30;55.80
28161;DHT22;15448;51.956;7.670;2022-07-29T11:27:53;22.30;55.90
28161;DHT22;15448;51.956;7.670;2022-07-29T11:30:19;22.30;55.80
28161;DHT22;15448;51.956;7.670;2022-07-29T11:32:45;22.30;55.60
28161;DHT22;15448;51.956;7.670;2022-07-29T11:35:16;22.30;55.70
28161;DHT22;15448;51.956;7.670;2022-07-29T11:37:42;22.30;56.50
28161;DHT22;15448;51.956;7.670;2022-07-29T11:40:11;22.30;56.00
28161;DHT22;15448;51.956;7.670;2022-07-29T11:42:38;22.30;55.70
28161;DHT22;15448;51.956;7.670;2022-07-29T11:47:38;22.30;55.40
28161;DHT22;15448;51.956;7.670;2022-07-29T11:50:09;22.30;55.60
28161;DHT22;15448;51.956;7.670;2022-07-29T11:52:40;22.30;55.60
28161;DHT22;15448;51.956;7.670;2022-07-29T11:55:15;22.30;55.80
28161;DHT22;15448;51.956;7.670;2022-07-29T11:57:53;22.30;55.80
28161;DHT22;15448;51.956;7.670;2022-07-29T12:00:29;22.30;56.20
28161;DHT22;15448;51.956;7.670;2022-07-29T12:02:56;22.20;56.70
28161;DHT22;15448;51.956;7.670;2022-07-29T12:05:51;22.20;57.10
28161;DHT22;15448;51.956;7.670;2022-07-29T12:08:19;22.20;57.30
28161;DHT22;15448;51.956;7.670;2022-07-29T12:10:49;22.20;57.40
28161;DHT22;15448;51.956;7.670;2022-07-29T12:13:16;22.20;57.70
28161;DHT22;15448;51.956;7.670;2022-07-29T12:15:51;22.20;57.80
28161;DHT22;15448;51.956;7.670;2022-07-29T12:18:18;22.10;58.00
28161;DHT22;15448;51.956;7.670;2022-07-29T12:20:47;22.10;58.10
28161;DHT22;15448;51.956;7.670;2022-07-29T12:23:14;22.20;58.10
28161;DHT22;15448;51.956;7.670;2022-07-29T12:25:42;22.10;58.50
28161;DHT22;15448;51.956;7.670;2022-07-29T12:28:12;22.20;58.30
28161;DHT22;15448;51.956;7.670;2022-07-29T12:30:47;22.10;58.50
28161;DHT22;15448;51.956;7.670;2022-07-29T12:35:46;22.10;58.70
28161;DHT22;15448;51.956;7.670;2022-07-29T12:38:13;22.10;59.00
28161;DHT22;15448;51.956;7.670;2022-07-29T12:40:39;22.00;59.30
28161;DHT22;15448;51.956;7.670;2022-07-29T12:45:40;21.90;59.70
28161;DHT22;15448;51.956;7.670;2022-07-29T12:48:06;21.90;59.90
28161;DHT22;15448;51.956;7.670;2022-07-29T12:50:35;21.90;60.00
28161;DHT22;15448;51.956;7.670;2022-07-29T12:53:11;22.00;59.70
28161;DHT22;15448;51.956;7.670;2022-07-29T12:55:48;22.00;60.20
28161;DHT22;15448;51.956;7.670;2022-07-29T12:58:31;21.90;59.80
28161;DHT22;15448;51.956;7.670;2022-07-29T13:01:04;21.90;60.00
28161;DHT22;15448;51.956;7.670;2022-07-29T13:03:44;21.90;60.00
28161;DHT22;15448;51.956;7.670;2022-07-29T13:06:30;21.90;60.20
28161;DHT22;15448;51.956;7.670;2022-07-29T13:09:00;22.00;60.10
28161;DHT22;15448;51.956;7.670;2022-07-29T13:11:31;22.00;60.20
28161;DHT22;15448;51.956;7.670;2022-07-29T13:13:56;21.90;60.40
28161;DHT22;15448;51.956;7.670;2022-07-29T13:16:22;21.90;60.70
28161;DHT22;15448;51.956;7.670;2022-07-29T13:18:47;21.90;60.70
28161;DHT22;15448;51.956;7.670;2022-07-29T13:21:15;21.90;60.80
28161;DHT22;15448;51.956;7.670;2022-07-29T13:23:41;21.90;60.50
28161;DHT22;15448;51.956;7.670;2022-07-29T13:26:08;22.00;60.30
28161;DHT22;15448;51.956;7.670;2022-07-29T13:28:34;22.00;60.40
28161;DHT22;15448;51.956;7.670;2022-07-29T13:30:59;22.00;60.70
28161;DHT22;15448;51.956;7.670;2022-07-29T13:33:25;22.00;60.40
28161;DHT22;15448;51.956;7.670;2022-07-29T13:35:51;22.00;60.50
28161;DHT22;15448;51.956;7.670;2022-07-29T13:38:16;22.00;60.90
28161;DHT22;15448;51.956;7.670;2022-07-29T13:40:42;22.00;61.00
28161;DHT22;15448;51.956;7.670;2022-07-29T13:43:11;22.00;61.40
28161;DHT22;15448;51.956;7.670;2022-07-29T13:45:37;22.00;61.10
28161;DHT22;15448;51.956;7.670;2022-07-29T13:48:03;22.00;61.00
28161;DHT22;15448;51.956;7.670;2022-07-29T13:50:29;22.00;61.10
28161;DHT22;15448;51.956;7.670;2022-07-29T13:52:54;22.10;61.20
28161;DHT22;15448;51.956;7.670;2022-07-29T13:55:20;22.10;60.90
28161;DHT22;15448;51.956;7.670;2022-07-29T13:57:46;22.10;60.80
28161;DHT22;15448;51.956;7.670;2022-07-29T14:00:12;22.10;61.00
28161;DHT22;15448;51.956;7.670;2022-07-29T14:02:38;22.20;61.10
28161;DHT22;15448;51.956;7.670;2022-07-29T14:05:05;22.20;61.10
28161;DHT22;15448;51.956;7.670;2022-07-29T14:07:31;22.20;60.80
28161;DHT22;15448;51.956;7.670;2022-07-29T14:09:57;22.20;60.70
28161;DHT22;15448;51.956;7.670;2022-07-29T14:12:22;22.20;60.50
28161;DHT22;15448;51.956;7.670;2022-07-29T14:14:48;22.20;60.40
28161;DHT22;15448;51.956;7.670;2022-07-29T14:17:14;22.30;60.40
28161;DHT22;15448;51.956;7.670;2022-07-29T14:19:40;22.20;60.00
28161;DHT22;15448;51.956;7.670;2022-07-29T14:22:07;22.20;59.90
28161;DHT22;15448;51.956;7.670;2022-07-29T14:24:33;22.30;60.10
28161;DHT22;15448;51.956;7.670;2022-07-29T14:26:58;22.30;60.00
28161;DHT22;15448;51.956;7.670;2022-07-29T14:29:24;22.30;59.70
28161;DHT22;15448;51.956;7.670;2022-07-29T14:31:50;22.40;59.80
28161;DHT22;15448;51.956;7.670;2022-07-29T14:34:15;22.30;59.70
28161;DHT22;15448;51.956;7.670;2022-07-29T14:36:41;22.30;59.70
28161;DHT22;15448;51.956;7.670;2022-07-29T14:39:07;22.40;59.60
28161;DHT22;15448;51.956;7.670;2022-07-29T14:41:32;22.30;59.80
28161;DHT22;15448;51.956;7.670;2022-07-29T14:43:59;22.40;59.70
28161;DHT22;15448;51.956;7.670;2022-07-29T14:46:26;22.40;59.60
28161;DHT22;15448;51.956;7.670;2022-07-29T14:48:52;22.40;59.40
28161;DHT22;15448;51.956;7.670;2022-07-29T14:51:17;22.40;59.10
28161;DHT22;15448;51.956;7.670;2022-07-29T14:53:43;22.50;58.90
28161;DHT22;15448;51.956;7.670;2022-07-29T14:56:09;22.40;58.80
28161;DHT22;15448;51.956;7.670;2022-07-29T14:58:35;22.40;58.90
28161;DHT22;15448;51.956;7.670;2022-07-29T15:01:00;22.40;58.70
28161;DHT22;15448;51.956;7.670;2022-07-29T15:03:26;22.50;58.50
28161;DHT22;15448;51.956;7.670;2022-07-29T15:05:53;22.40;58.50
28161;DHT22;15448;51.956;7.670;2022-07-29T15:08:19;22.40;58.40
28161;DHT22;15448;51.956;7.670;2022-07-29T15:10:45;22.40;59.20
28161;DHT22;15448;51.956;7.670;2022-07-29T15:13:10;22.50;58.50
28161;DHT22;15448;51.956;7.670;2022-07-29T15:15:36;22.50;58.40
28161;DHT22;15448;51.956;7.670;2022-07-29T15:18:01;22.50;58.30
28161;DHT22;15448;51.956;7.670;2022-07-29T15:20:27;22.50;58.30
28161;DHT22;15448;51.956;7.670;2022-07-29T15:22:53;22.50;58.10
28161;DHT22;15448;51.956;7.670;2022-07-29T15:25:21;22.50;58.00
28161;DHT22;15448;51.956;7.670;2022-07-29T15:27:47;22.50;57.80
28161;DHT22;15448;51.956;7.670;2022-07-29T15:30:12;22.50;57.70
28161;DHT22;15448;51.956;7.670;2022-07-29T15:32:40;22.50;57.70
28161;DHT22;15448;51.956;7.670;2022-07-29T15:35:06;22.50;57.90
28161;DHT22;15448;51.956;7.670;2022-07-29T15:37:31;22.50;58.00
28161;DHT22;15448;51.956;7.670;2022-07-29T15:40:00;22.50;58.00
28161;DHT22;15448;51.956;7.670;2022-07-29T15:42:25;22.50;57.80
28161;DHT22;15448;51.956;7.670;2022-07-29T15:44:51;22.60;57.80
28161;DHT22;15448;51.956;7.670;2022-07-29T15:47:17;22.50;57.80
28161;DHT22;15448;51.956;7.670;2022-07-29T15:49:42;22.60;57.90
28161;DHT22;15448;51.956;7.670;2022-07-29T15:52:09;22.60;57.80
28161;DHT22;15448;51.956;7.670;2022-07-29T15:54:37;22.60;57.60
28161;DHT22;15448;51.956;7.670;2022-07-29T15:57:04;22.60;57.50
28161;DHT22;15448;51.956;7.670;2022-07-29T15:59:30;22.70;57.50
28161;DHT22;15448;51.956;7.670;2022-07-29T16:01:56;22.70;57.50
28161;DHT22;15448;51.956;7.670;2022-07-29T16:04:21;22.60;57.40
28161;DHT22;15448;51.956;7.670;2022-07-29T16:06:48;22.70;57.30
28161;DHT22;15448;51.956;7.670;2022-07-29T16:09:15;22.70;57.20
28161;DHT22;15448;51.956;7.670;2022-07-29T16:11:41;22.60;57.10
28161;DHT22;15448;51.956;7.670;2022-07-29T16:14:07;22.70;57.00
28161;DHT22;15448;51.956;7.670;2022-07-29T16:16:34;22.60;57.00
28161;DHT22;15448;51.956;7.670;2022-07-29T16:18:59;22.70;56.90